sensor_id;sensor_type;location;lat;lon;timestamp;temperature;humidity
29855;DHT22;16733;48.738;9.106;2022-09-06T00:02:21;20.10;80.70
29855;DHT22;16733;48.738;9.106;2022-09-06T00:04:47;20.00;80.80
29855;DHT22;16733;48.738;9.106;2022-09-06T00:07:13;20.00;81.10
29855;DHT22;16733;48.738;9.106;2022-09-06T00:09:39;20.00;81.20
29855;DHT22;16733;48.738;9.106;2022-09-06T00:12:05;19.90;81.20
29855;DHT22;16733;48.738;9.106;2022-09-06T00:14:31;19.90;81.30
29855;DHT22;16733;48.738;9.106;2022-09-06T00:16:57;19.80;81.40
29855;DHT22;16733;48.738;9.106;2022-09-06T00:19:23;19.80;81.60
29855;DHT22;16733;48.738;9.106;2022-09-06T00:21:48;19.70;81.80
29855;DHT22;16733;48.738;9.106;2022-09-06T00:24:14;19.70;81.90
29855;DHT22;16733;48.738;9.106;2022-09-06T00:26:39;19.70;82.00
29855;DHT22;16733;48.738;9.106;2022-09-06T00:29:05;19.70;82.00
29855;DHT22;16733;48.738;9.106;2022-09-06T00:34:52;19.60;82.00
29855;DHT22;16733;48.738;9.106;2022-09-06T00:37:18;19.60;82.40
29855;DHT22;16733;48.738;9.106;2022-09-06T00:39:44;19.50;82.40
29855;DHT22;16733;48.738;9.106;2022-09-06T00:42:11;19.50;82.50
29855;DHT22;16733;48.738;9.106;2022-09-06T00:44:37;19.50;82.60
29855;DHT22;16733;48.738;9.106;2022-09-06T00:47:04;19.50;82.70
29855;DHT22;16733;48.738;9.106;2022-09-06T00:52:52;19.40;82.60
29855;DHT22;16733;48.738;9.106;2022-09-06T00:55:19;19.30;83.00
29855;DHT22;16733;48.738;9.106;2022-09-06T00:57:46;19.30;83.10
29855;DHT22;16733;48.738;9.106;2022-09-06T01:00:16;19.30;83.20
29855;DHT22;16733;48.738;9.106;2022-09-06T01:02:41;19.30;83.30
29855;DHT22;16733;48.738;9.106;2022-09-06T01:05:08;19.30;83.40
29855;DHT22;16733;48.738;9.106;2022-09-06T01:16:42;19.20;83.40
29855;DHT22;16733;48.738;9.106;2022-09-06T01:19:53;19.20;83.60
29855;DHT22;16733;48.738;9.106;2022-09-06T01:30:10;19.10;83.70
29855;DHT22;16733;48.738;9.106;2022-09-06T01:36:05;19.10;83.80
29855;DHT22;16733;48.738;9.106;2022-09-06T01:38:33;19.10;84.10
29855;DHT22;16733;48.738;9.106;2022-09-06T01:44:22;19.20;83.80
29855;DHT22;16733;48.738;9.106;2022-09-06T01:47:41;19.20;83.90
29855;DHT22;16733;48.738;9.106;2022-09-06T01:56:01;19.30;83.00
29855;DHT22;16733;48.738;9.106;2022-09-06T01:59:24;19.30;82.80
29855;DHT22;16733;48.738;9.106;2022-09-06T02:04:46;19.40;82.60
29855;DHT22;16733;48.738;9.106;2022-09-06T02:07:26;19.50;82.40
29855;DHT22;16733;48.738;9.106;2022-09-06T02:13:16;19.50;81.80
29855;DHT22;16733;48.738;9.106;2022-09-06T02:15:53;19.50;83.00
29855;DHT22;16733;48.738;9.106;2022-09-06T02:18:23;19.60;82.50
29855;DHT22;16733;48.738;9.106;2022-09-06T02:21:05;19.70;81.50
29855;DHT22;16733;48.738;9.106;2022-09-06T02:23:37;19.60;81.50
29855;DHT22;16733;48.738;9.106;2022-09-06T02:26:12;19.50;81.60
29855;DHT22;16733;48.738;9.106;2022-09-06T02:28:38;19.40;81.90
29855;DHT22;16733;48.738;9.106;2022-09-06T02:31:27;19.30;82.40
29855;DHT22;16733;48.738;9.106;2022-09-06T02:33:54;19.30;82.60
29855;DHT22;16733;48.738;9.106;2022-09-06T02:36:20;19.30;83.00
29855;DHT22;16733;48.738;9.106;2022-09-06T02:38:46;19.40;83.30
29855;DHT22;16733;48.738;9.106;2022-09-06T02:41:14;19.40;83.40
29855;DHT22;16733;48.738;9.106;2022-09-06T02:47:03;19.40;83.40
29855;DHT22;16733;48.738;9.106;2022-09-06T02:49:29;19.30;84.10
29855;DHT22;16733;48.738;9.106;2022-09-06T02:51:55;19.10;84.50
29855;DHT22;16733;48.738;9.106;2022-09-06T02:54:21;19.00;85.10
29855;DHT22;16733;48.738;9.106;2022-09-06T02:56:47;19.00;85.80
29855;DHT22;16733;48.738;9.106;2022-09-06T02:59:13;18.90;86.20
29855;DHT22;16733;48.738;9.106;2022-09-06T03:01:38;18.80;86.50
29855;DHT22;16733;48.738;9.106;2022-09-06T03:07:26;18.70;87.80
29855;DHT22;16733;48.738;9.106;2022-09-06T03:09:51;18.60;88.30
29855;DHT22;16733;48.738;9.106;2022-09-06T03:15:39;18.60;89.20
29855;DHT22;16733;48.738;9.106;2022-09-06T03:18:04;18.50;89.50
29855;DHT22;16733;48.738;9.106;2022-09-06T03:23:52;18.50;90.40
29855;DHT22;16733;48.738;9.106;2022-09-06T03:26:19;18.50;90.60
29855;DHT22;16733;48.738;9.106;2022-09-06T03:28:44;18.60;90.80
29855;DHT22;16733;48.738;9.106;2022-09-06T03:34:32;18.60;90.90
29855;DHT22;16733;48.738;9.106;2022-09-06T03:40:19;18.70;90.90
29855;DHT22;16733;48.738;9.106;2022-09-06T03:42:45;18.70;91.10
29855;DHT22;16733;48.738;9.106;2022-09-06T03:48:33;18.60;91.40
29855;DHT22;16733;48.738;9.106;2022-09-06T03:50:58;18.60;91.60
29855;DHT22;16733;48.738;9.106;2022-09-06T03:53:25;18.50;91.70
29855;DHT22;16733;48.738;9.106;2022-09-06T03:55:53;18.40;91.80
29855;DHT22;16733;48.738;9.106;2022-09-06T03:58:21;18.40;92.00
29855;DHT22;16733;48.738;9.106;2022-09-06T04:00:46;18.40;92.10
29855;DHT22;16733;48.738;9.106;2022-09-06T04:03:12;18.40;92.20
29855;DHT22;16733;48.738;9.106;2022-09-06T04:05:38;18.30;92.40
29855;DHT22;16733;48.738;9.106;2022-09-06T04:11:25;18.40;92.50
29855;DHT22;16733;48.738;9.106;2022-09-06T04:13:51;18.30;92.60
29855;DHT22;16733;48.738;9.106;2022-09-06T04:16:17;18.30;92.70
29855;DHT22;16733;48.738;9.106;2022-09-06T04:18:43;18.30;92.80
29855;DHT22;16733;48.738;9.106;2022-09-06T04:24:32;18.20;93.10
29855;DHT22;16733;48.738;9.106;2022-09-06T04:30:19;18.20;93.50
29855;DHT22;16733;48.738;9.106;2022-09-06T04:36:08;18.20;93.60
29855;DHT22;16733;48.738;9.106;2022-09-06T04:38:37;18.10;93.70
29855;DHT22;16733;48.738;9.106;2022-09-06T04:44:24;18.10;93.90
29855;DHT22;16733;48.738;9.106;2022-09-06T04:46:50;18.10;94.00
29855;DHT22;16733;48.738;9.106;2022-09-06T04:53:01;18.10;94.10
29855;DHT22;16733;48.738;9.106;2022-09-06T04:55:26;18.20;94.20
29855;DHT22;16733;48.738;9.106;2022-09-06T04:58:09;18.20;94.20
29855;DHT22;16733;48.738;9.106;2022-09-06T05:00:35;18.30;94.20
29855;DHT22;16733;48.738;9.106;2022-09-06T05:03:02;18.30;94.20
29855;DHT22;16733;48.738;9.106;2022-09-06T05:05:28;18.30;94.20
29855;DHT22;16733;48.738;9.106;2022-09-06T05:07:54;18.40;94.10
29855;DHT22;16733;48.738;9.106;2022-09-06T05:13:44;18.40;94.00
29855;DHT22;16733;48.738;9.106;2022-09-06T05:16:10;18.40;94.20
29855;DHT22;16733;48.738;9.106;2022-09-06T05:18:36;18.40;94.20
29855;DHT22;16733;48.738;9.106;2022-09-06T05:21:02;18.40;94.30
29855;DHT22;16733;48.738;9.106;2022-09-06T05:23:27;18.40;94.20
29855;DHT22;16733;48.738;9.106;2022-09-06T05:25:53;18.40;94.20
29855;DHT22;16733;48.738;9.106;2022-09-06T05:28:19;18.40;94.20
29855;DHT22;16733;48.738;9.106;2022-09-06T05:30:45;18.50;94.20
29855;DHT22;16733;48.738;9.106;2022-09-06T05:36:33;18.50;94.10
29855;DHT22;16733;48.738;9.106;2022-09-06T05:42:20;18.50;94.00
29855;DHT22;16733;48.738;9.106;2022-09-06T05:44:46;18.50;94.10
29855;DHT22;16733;48.738;9.106;2022-09-06T05:47:11;18.50;94.10
29855;DHT22;16733;48.738;9.106;2022-09-06T05:49:37;18.50;94.00
29855;DHT22;16733;48.738;9.106;2022-09-06T05:55:26;18.50;94.00
29855;DHT22;16733;48.738;9.106;2022-09-06T06:01:23;18.50;94.00
29855;DHT22;16733;48.738;9.106;2022-09-06T06:07:13;18.50;94.20
29855;DHT22;16733;48.738;9.106;2022-09-06T06:09:39;18.50;94.20
29855;DHT22;16733;48.738;9.106;2022-09-06T06:12:06;18.50;94.30
29855;DHT22;16733;48.738;9.106;2022-09-06T06:14:32;18.50;94.30
29855;DHT22;16733;48.738;9.106;2022-09-06T06:16:57;18.50;94.30
29855;DHT22;16733;48.738;9.106;2022-09-06T06:26:08;18.50;94.30
29855;DHT22;16733;48.738;9.106;2022-09-06T06:28:35;18.60;94.60
29855;DHT22;16733;48.738;9.106;2022-09-06T06:34:23;18.70;94.40
29855;DHT22;16733;48.738;9.106;2022-09-06T06:36:48;18.80;94.70
29855;DHT22;16733;48.738;9.106;2022-09-06T06:39:14;18.80;94.30
29855;DHT22;16733;48.738;9.106;2022-09-06T06:41:40;18.80;94.20
29855;DHT22;16733;48.738;9.106;2022-09-06T06:44:05;18.80;94.20
29855;DHT22;16733;48.738;9.106;2022-09-06T06:53:15;18.80;94.10
29855;DHT22;16733;48.738;9.106;2022-09-06T06:55:44;18.90;94.20
29855;DHT22;16733;48.738;9.106;2022-09-06T06:58:11;19.00;94.30
29855;DHT22;16733;48.738;9.106;2022-09-06T07:00:36;19.10;94.20
29855;DHT22;16733;48.738;9.106;2022-09-06T07:03:02;19.20;94.10
29855;DHT22;16733;48.738;9.106;2022-09-06T07:05:29;19.30;94.00
29855;DHT22;16733;48.738;9.106;2022-09-06T07:07:54;19.40;93.90
29855;DHT22;16733;48.738;9.106;2022-09-06T07:10:20;19.50;93.80
29855;DHT22;16733;48.738;9.106;2022-09-06T07:16:22;19.80;93.40
29855;DHT22;16733;48.738;9.106;2022-09-06T07:22:10;19.90;93.10
29855;DHT22;16733;48.738;9.106;2022-09-06T07:24:35;20.00;93.10
29855;DHT22;16733;48.738;9.106;2022-09-06T07:27:01;20.00;92.80
29855;DHT22;16733;48.738;9.106;2022-09-06T07:29:26;20.00;92.70
29855;DHT22;16733;48.738;9.106;2022-09-06T07:31:52;20.10;92.70
29855;DHT22;16733;48.738;9.106;2022-09-06T07:34:22;20.10;92.40
29855;DHT22;16733;48.738;9.106;2022-09-06T07:36:53;20.10;92.50
29855;DHT22;16733;48.738;9.106;2022-09-06T07:39:19;20.10;92.40
29855;DHT22;16733;48.738;9.106;2022-09-06T07:41:45;20.10;92.40
29855;DHT22;16733;48.738;9.106;2022-09-06T07:44:10;20.20;92.40
29855;DHT22;16733;48.738;9.106;2022-09-06T07:46:36;20.30;92.30
29855;DHT22;16733;48.738;9.106;2022-09-06T07:49:03;20.30;92.20
29855;DHT22;16733;48.738;9.106;2022-09-06T07:51:30;20.40;92.20
29855;DHT22;16733;48.738;9.106;2022-09-06T07:53:55;20.60;92.10
29855;DHT22;16733;48.738;9.106;2022-09-06T07:59:43;20.80;91.50
29855;DHT22;16733;48.738;9.106;2022-09-06T08:02:09;20.90;91.70
29855;DHT22;16733;48.738;9.106;2022-09-06T08:04:34;21.10;91.60
29855;DHT22;16733;48.738;9.106;2022-09-06T08:10:22;21.30;90.70
29855;DHT22;16733;48.738;9.106;2022-09-06T08:12:48;21.40;90.70
29855;DHT22;16733;48.738;9.106;2022-09-06T08:18:38;21.50;90.20
29855;DHT22;16733;48.738;9.106;2022-09-06T08:21:14;21.50;90.40
29855;DHT22;16733;48.738;9.106;2022-09-06T08:27:02;21.70;89.60
29855;DHT22;16733;48.738;9.106;2022-09-06T08:29:28;21.80;89.30
29855;DHT22;16733;48.738;9.106;2022-09-06T08:31:53;21.90;88.70
29855;DHT22;16733;48.738;9.106;2022-09-06T08:34:19;22.00;88.40
29855;DHT22;16733;48.738;9.106;2022-09-06T08:36:45;22.10;88.00
29855;DHT22;16733;48.738;9.106;2022-09-06T08:39:11;22.20;87.50
29855;DHT22;16733;48.738;9.106;2022-09-06T08:41:54;22.40;87.40
29855;DHT22;16733;48.738;9.106;2022-09-06T08:44:29;22.50;86.50
29855;DHT22;16733;48.738;9.106;2022-09-06T08:49:25;22.70;86.40
29855;DHT22;16733;48.738;9.106;2022-09-06T09:00:06;23.00;85.20
29855;DHT22;16733;48.738;9.106;2022-09-06T09:02:43;23.10;85.20
29855;DHT22;16733;48.738;9.106;2022-09-06T09:14:53;23.70;82.60
29855;DHT22;16733;48.738;9.106;2022-09-06T09:17:29;23.90;82.90
29855;DHT22;16733;48.738;9.106;2022-09-06T09:19:56;24.00;82.30
29855;DHT22;16733;48.738;9.106;2022-09-06T09:22:23;24.10;81.80
29855;DHT22;16733;48.738;9.106;2022-09-06T09:24:49;24.30;81.40
29855;DHT22;16733;48.738;9.106;2022-09-06T09:27:24;24.40;81.00
29855;DHT22;16733;48.738;9.106;2022-09-06T09:32:42;24.50;79.90
29855;DHT22;16733;48.738;9.106;2022-09-06T09:35:39;24.60;79.50
29855;DHT22;16733;48.738;9.106;2022-09-06T09:38:25;24.60;79.10
29855;DHT22;16733;48.738;9.106;2022-09-06T09:40:54;24.70;79.20
29855;DHT22;16733;48.738;9.106;2022-09-06T09:46:42;24.90;78.40
29855;DHT22;16733;48.738;9.106;2022-09-06T09:49:16;25.00;78.80
29855;DHT22;16733;48.738;9.106;2022-09-06T09:52:09;25.20;77.90
29855;DHT22;16733;48.738;9.106;2022-09-06T09:54:36;25.30;77.40
29855;DHT22;16733;48.738;9.106;2022-09-06T09:57:07;25.40;78.50
29855;DHT22;16733;48.738;9.106;2022-09-06T09:59:43;25.50;77.60
29855;DHT22;16733;48.738;9.106;2022-09-06T10:02:36;25.60;76.90
29855;DHT22;16733;48.738;9.106;2022-09-06T10:11:02;25.90;75.00
29855;DHT22;16733;48.738;9.106;2022-09-06T10:13:29;26.00;75.50
29855;DHT22;16733;48.738;9.106;2022-09-06T10:16:09;26.00;74.50
29855;DHT22;16733;48.738;9.106;2022-09-06T10:18:42;26.00;73.70
29855;DHT22;16733;48.738;9.106;2022-09-06T10:21:10;26.00;73.70
29855;DHT22;16733;48.738;9.106;2022-09-06T10:29:12;26.40;72.50
29855;DHT22;16733;48.738;9.106;2022-09-06T10:39:48;26.80;71.40
29855;DHT22;16733;48.738;9.106;2022-09-06T10:48:02;26.80;70.60
29855;DHT22;16733;48.738;9.106;2022-09-06T10:50:44;26.80;70.80
29855;DHT22;16733;48.738;9.106;2022-09-06T10:56:42;26.70;70.20
29855;DHT22;16733;48.738;9.106;2022-09-06T11:01:59;26.80;70.70
29855;DHT22;16733;48.738;9.106;2022-09-06T11:04:34;26.80;70.50
29855;DHT22;16733;48.738;9.106;2022-09-06T11:07:36;26.90;70.30
29855;DHT22;16733;48.738;9.106;2022-09-06T11:10:13;26.90;70.20
29855;DHT22;16733;48.738;9.106;2022-09-06T11:12:42;26.90;70.10
29855;DHT22;16733;48.738;9.106;2022-09-06T11:15:12;26.80;70.20
29855;DHT22;16733;48.738;9.106;2022-09-06T11:17:54;26.80;70.00
29855;DHT22;16733;48.738;9.106;2022-09-06T11:28:46;26.90;69.30
29855;DHT22;16733;48.738;9.106;2022-09-06T11:31:31;26.90;69.30
29855;DHT22;16733;48.738;9.106;2022-09-06T11:34:03;26.90;69.00
29855;DHT22;16733;48.738;9.106;2022-09-06T11:36:44;27.00;69.00
29855;DHT22;16733;48.738;9.106;2022-09-06T11:39:36;27.00;68.80
29855;DHT22;16733;48.738;9.106;2022-09-06T11:42:07;27.10;68.80
29855;DHT22;16733;48.738;9.106;2022-09-06T11:47:54;27.40;68.10
29855;DHT22;16733;48.738;9.106;2022-09-06T11:58:33;27.70;67.10
29855;DHT22;16733;48.738;9.106;2022-09-06T12:07:15;27.80;66.40
29855;DHT22;16733;48.738;9.106;2022-09-06T12:09:42;27.80;66.90
29855;DHT22;16733;48.738;9.106;2022-09-06T12:12:09;27.90;66.60
29855;DHT22;16733;48.738;9.106;2022-09-06T12:14:38;28.00;66.20
29855;DHT22;16733;48.738;9.106;2022-09-06T12:27:36;28.60;64.20
29855;DHT22;16733;48.738;9.106;2022-09-06T12:30:07;28.60;64.00
29855;DHT22;16733;48.738;9.106;2022-09-06T12:35:24;29.00;63.30
29855;DHT22;16733;48.738;9.106;2022-09-06T12:38:02;29.20;62.80
29855;DHT22;16733;48.738;9.106;2022-09-06T12:40:34;29.20;62.70
29855;DHT22;16733;48.738;9.106;2022-09-06T12:43:02;29.30;61.80
29855;DHT22;16733;48.738;9.106;2022-09-06T12:49:08;29.40;60.10
29855;DHT22;16733;48.738;9.106;2022-09-06T12:51:36;29.50;60.50
29855;DHT22;16733;48.738;9.106;2022-09-06T12:54:10;29.40;60.40
29855;DHT22;16733;48.738;9.106;2022-09-06T12:56:40;29.20;59.90
29855;DHT22;16733;48.738;9.106;2022-09-06T12:59:20;28.90;60.20
29855;DHT22;16733;48.738;9.106;2022-09-06T13:05:08;28.20;60.60
29855;DHT22;16733;48.738;9.106;2022-09-06T13:07:41;27.70;62.00
29855;DHT22;16733;48.738;9.106;2022-09-06T13:10:09;27.30;62.30
29855;DHT22;16733;48.738;9.106;2022-09-06T13:16:00;26.80;63.30
29855;DHT22;16733;48.738;9.106;2022-09-06T13:18:35;26.10;64.90
29855;DHT22;16733;48.738;9.106;2022-09-06T13:21:07;25.50;67.00
29855;DHT22;16733;48.738;9.106;2022-09-06T13:23:44;24.90;69.40
29855;DHT22;16733;48.738;9.106;2022-09-06T13:26:11;24.40;71.80
29855;DHT22;16733;48.738;9.106;2022-09-06T13:28:36;23.90;74.40
29855;DHT22;16733;48.738;9.106;2022-09-06T13:31:09;23.50;77.40
29855;DHT22;16733;48.738;9.106;2022-09-06T13:33:37;23.10;81.10
29855;DHT22;16733;48.738;9.106;2022-09-06T13:36:13;22.70;84.60
29855;DHT22;16733;48.738;9.106;2022-09-06T13:38:41;22.50;88.50
29855;DHT22;16733;48.738;9.106;2022-09-06T13:44:30;22.10;93.00
29855;DHT22;16733;48.738;9.106;2022-09-06T13:46:57;22.00;94.20
29855;DHT22;16733;48.738;9.106;2022-09-06T13:49:23;21.90;95.00
29855;DHT22;16733;48.738;9.106;2022-09-06T13:55:15;21.90;96.40
29855;DHT22;16733;48.738;9.106;2022-09-06T13:57:43;22.00;97.50
29855;DHT22;16733;48.738;9.106;2022-09-06T14:03:31;22.30;99.20
29855;DHT22;16733;48.738;9.106;2022-09-06T14:05:58;22.30;99.40
29855;DHT22;16733;48.738;9.106;2022-09-06T14:08:25;22.40;99.80
29855;DHT22;16733;48.738;9.106;2022-09-06T14:10:51;22.50;99.90
29855;DHT22;16733;48.738;9.106;2022-09-06T14:13:17;22.60;99.90
29855;DHT22;16733;48.738;9.106;2022-09-06T14:15:47;22.60;99.90
29855;DHT22;16733;48.738;9.106;2022-09-06T14:18:13;22.70;99.90
29855;DHT22;16733;48.738;9.106;2022-09-06T14:20:39;22.90;99.90
29855;DHT22;16733;48.738;9.106;2022-09-06T14:23:06;23.10;99.90
29855;DHT22;16733;48.738;9.106;2022-09-06T14:25:35;23.20;99.90
29855;DHT22;16733;48.738;9.106;2022-09-06T14:28:04;23.30;99.90
29855;DHT22;16733;48.738;9.106;2022-09-06T14:30:30;23.40;99.90
29855;DHT22;16733;48.738;9.106;2022-09-06T14:32:56;23.40;99.90
29855;DHT22;16733;48.738;9.106;2022-09-06T14:35:21;23.50;99.90
29855;DHT22;16733;48.738;9.106;2022-09-06T14:41:10;23.70;99.90
29855;DHT22;16733;48.738;9.106;2022-09-06T14:43:36;23.80;99.90
29855;DHT22;16733;48.738;9.106;2022-09-06T14:49:24;23.90;99.90
29855;DHT22;16733;48.738;9.106;2022-09-06T14:51:51;23.80;99.90
29855;DHT22;16733;48.738;9.106;2022-09-06T14:57:39;23.80;99.90
29855;DHT22;16733;48.738;9.106;2022-09-06T15:00:05;23.80;99.90
29855;DHT22;16733;48.738;9.106;2022-09-06T15:02:35;23.80;99.90
29855;DHT22;16733;48.738;9.106;2022-09-06T15:05:16;23.80;99.90
29855;DHT22;16733;48.738;9.106;2022-09-06T15:07:42;23.90;99.90
29855;DHT22;16733;48.738;9.106;2022-09-06T15:10:08;23.90;99.90
29855;DHT22;16733;48.738;9.106;2022-09-06T15:12:33;23.90;99.90
29855;DHT22;16733;48.738;9.106;2022-09-06T15:14:59;23.80;99.50
29855;DHT22;16733;48.738;9.106;2022-09-06T15:20:47;23.70;99.00
29855;DHT22;16733;48.738;9.106;2022-09-06T15:23:14;23.70;99.20
29855;DHT22;16733;48.738;9.106;2022-09-06T15:25:50;23.80;99.00
29855;DHT22;16733;48.738;9.106;2022-09-06T15:28:17;24.00;98.70
29855;DHT22;16733;48.738;9.106;2022-09-06T15:30:46;24.20;98.60
29855;DHT22;16733;48.738;9.106;2022-09-06T15:36:36;24.40;97.60
29855;DHT22;16733;48.738;9.106;2022-09-06T15:42:24;24.30;97.60
29855;DHT22;16733;48.738;9.106;2022-09-06T15:44:49;24.30;98.50
29855;DHT22;16733;48.738;9.106;2022-09-06T15:50:38;24.20;97.90
29855;DHT22;16733;48.738;9.106;2022-09-06T15:53:05;24.20;98.50
29855;DHT22;16733;48.738;9.106;2022-09-06T15:58:53;24.30;97.40
29855;DHT22;16733;48.738;9.106;2022-09-06T16:01:21;24.30;97.70
29855;DHT22;16733;48.738;9.106;2022-09-06T16:04:04;24.30;97.20
29855;DHT22;16733;48.738;9.106;2022-09-06T16:06:38;24.40;97.20
29855;DHT22;16733;48.738;9.106;2022-09-06T16:09:11;24.30;96.70
29855;DHT22;16733;48.738;9.106;2022-09-06T16:11:38;24.30;96.50
29855;DHT22;16733;48.738;9.106;2022-09-06T16:14:08;24.30;96.50
29855;DHT22;16733;48.738;9.106;2022-09-06T16:16:34;24.40;96.30
29855;DHT22;16733;48.738;9.106;2022-09-06T16:19:03;24.40;96.20
29855;DHT22;16733;48.738;9.106;2022-09-06T16:21:30;24.50;95.90
29855;DHT22;16733;48.738;9.106;2022-09-06T16:23:58;24.50;95.90
29855;DHT22;16733;48.738;9.106;2022-09-06T16:26:26;24.50;95.80
29855;DHT22;16733;48.738;9.106;2022-09-06T16:28:53;24.50;95.50
29855;DHT22;16733;48.738;9.106;2022-09-06T16:34:40;24.50;94.90
29855;DHT22;16733;48.738;9.106;2022-09-06T16:37:06;24.50;95.80
29855;DHT22;16733;48.738;9.106;2022-09-06T16:39:33;24.50;95.40
29855;DHT22;16733;48.738;9.106;2022-09-06T16:41:59;24.50;95.20
29855;DHT22;16733;48.738;9.106;2022-09-06T16:44:26;24.40;95.10
29855;DHT22;16733;48.738;9.106;2022-09-06T16:46:52;24.50;95.10
29855;DHT22;16733;48.738;9.106;2022-09-06T16:49:18;24.50;95.20
29855;DHT22;16733;48.738;9.106;2022-09-06T16:51:45;24.50;95.20
29855;DHT22;16733;48.738;9.106;2022-09-06T16:54:49;24.50;94.90
29855;DHT22;16733;48.738;9.106;2022-09-06T16:57:15;24.50;95.20
29855;DHT22;16733;48.738;9.106;2022-09-06T16:59:40;24.40;95.10
29855;DHT22;16733;48.738;9.106;2022-09-06T17:02:06;24.40;95.00
29855;DHT22;16733;48.738;9.106;2022-09-06T17:04:31;24.50;94.90
29855;DHT22;16733;48.738;9.106;2022-09-06T17:10:20;24.40;94.20
29855;DHT22;16733;48.738;9.106;2022-09-06T17:12:46;24.40;95.00
29855;DHT22;16733;48.738;9.106;2022-09-06T17:15:11;24.30;94.70
29855;DHT22;16733;48.738;9.106;2022-09-06T17:17:37;24.30;94.80
29855;DHT22;16733;48.738;9.106;2022-09-06T17:20:03;24.30;94.50
29855;DHT22;16733;48.738;9.106;2022-09-06T17:22:29;24.20;94.30
29855;DHT22;16733;48.738;9.106;2022-09-06T17:24:55;24.10;94.20
29855;DHT22;16733;48.738;9.106;2022-09-06T17:27:20;24.10;94.20
29855;DHT22;16733;48.738;9.106;2022-09-06T17:29:46;24.00;94.30
29855;DHT22;16733;48.738;9.106;2022-09-06T17:32:12;23.90;94.40
29855;DHT22;16733;48.738;9.106;2022-09-06T17:38:00;23.80;94.10
29855;DHT22;16733;48.738;9.106;2022-09-06T17:40:26;23.60;94.60
29855;DHT22;16733;48.738;9.106;2022-09-06T17:42:51;23.60;94.60
29855;DHT22;16733;48.738;9.106;2022-09-06T17:48:39;23.40;94.10
29855;DHT22;16733;48.738;9.106;2022-09-06T17:51:06;23.30;94.60
29855;DHT22;16733;48.738;9.106;2022-09-06T17:53:32;23.20;94.20
29855;DHT22;16733;48.738;9.106;2022-09-06T17:56:05;23.20;94.10
29855;DHT22;16733;48.738;9.106;2022-09-06T17:58:31;23.10;94.00
29855;DHT22;16733;48.738;9.106;2022-09-06T18:04:19;23.00;94.00
29855;DHT22;16733;48.738;9.106;2022-09-06T18:06:44;22.90;94.60
29855;DHT22;16733;48.738;9.106;2022-09-06T18:09:13;22.90;94.50
29855;DHT22;16733;48.738;9.106;2022-09-06T18:11:40;22.80;94.50
29855;DHT22;16733;48.738;9.106;2022-09-06T18:14:08;22.70;94.60
29855;DHT22;16733;48.738;9.106;2022-09-06T18:19:56;22.60;94.30
29855;DHT22;16733;48.738;9.106;2022-09-06T18:22:22;22.60;95.00
29855;DHT22;16733;48.738;9.106;2022-09-06T18:24:48;22.60;95.00
29855;DHT22;16733;48.738;9.106;2022-09-06T18:27:14;22.50;95.00
29855;DHT22;16733;48.738;9.106;2022-09-06T18:29:39;22.40;95.00
29855;DHT22;16733;48.738;9.106;2022-09-06T18:32:05;22.40;95.20
29855;DHT22;16733;48.738;9.106;2022-09-06T18:34:32;22.30;95.40
29855;DHT22;16733;48.738;9.106;2022-09-06T18:36:58;22.20;95.50
29855;DHT22;16733;48.738;9.106;2022-09-06T18:42:46;22.10;95.60
29855;DHT22;16733;48.738;9.106;2022-09-06T18:45:11;22.00;96.20
29855;DHT22;16733;48.738;9.106;2022-09-06T18:47:37;22.00;96.20
29855;DHT22;16733;48.738;9.106;2022-09-06T18:50:03;22.00;96.20
29855;DHT22;16733;48.738;9.106;2022-09-06T18:52:29;22.00;96.30
29855;DHT22;16733;48.738;9.106;2022-09-06T18:54:55;22.00;96.30
29855;DHT22;16733;48.738;9.106;2022-09-06T18:57:21;21.90;96.20
29855;DHT22;16733;48.738;9.106;2022-09-06T18:59:47;21.90;96.10
29855;DHT22;16733;48.738;9.106;2022-09-06T19:02:12;21.90;96.00
29855;DHT22;16733;48.738;9.106;2022-09-06T19:04:38;21.90;95.90
29855;DHT22;16733;48.738;9.106;2022-09-06T19:07:04;21.90;95.80
29855;DHT22;16733;48.738;9.106;2022-09-06T19:09:29;21.90;95.60
29855;DHT22;16733;48.738;9.106;2022-09-06T19:11:55;21.90;95.60
29855;DHT22;16733;48.738;9.106;2022-09-06T19:14:21;21.90;95.50
29855;DHT22;16733;48.738;9.106;2022-09-06T19:20:09;21.70;95.50
29855;DHT22;16733;48.738;9.106;2022-09-06T19:22:36;21.60;96.10
29855;DHT22;16733;48.738;9.106;2022-09-06T19:28:24;21.50;95.90
29855;DHT22;16733;48.738;9.106;2022-09-06T19:30:51;21.40;96.40
29855;DHT22;16733;48.738;9.106;2022-09-06T19:33:16;21.40;96.40
29855;DHT22;16733;48.738;9.106;2022-09-06T19:39:06;21.30;96.40
29855;DHT22;16733;48.738;9.106;2022-09-06T19:41:36;21.30;96.70
29855;DHT22;16733;48.738;9.106;2022-09-06T19:44:03;21.30;96.60
29855;DHT22;16733;48.738;9.106;2022-09-06T19:46:30;21.20;96.70
29855;DHT22;16733;48.738;9.106;2022-09-06T19:48:56;21.20;96.70
29855;DHT22;16733;48.738;9.106;2022-09-06T19:51:22;21.10;96.70
29855;DHT22;16733;48.738;9.106;2022-09-06T19:53:54;21.10;96.70
29855;DHT22;16733;48.738;9.106;2022-09-06T19:59:43;21.10;96.50
29855;DHT22;16733;48.738;9.106;2022-09-06T20:02:09;21.10;96.90
29855;DHT22;16733;48.738;9.106;2022-09-06T20:04:35;21.10;96.80
29855;DHT22;16733;48.738;9.106;2022-09-06T20:07:00;21.10;96.80
29855;DHT22;16733;48.738;9.106;2022-09-06T20:09:27;21.00;96.70
29855;DHT22;16733;48.738;9.106;2022-09-06T20:11:53;21.00;96.70
29855;DHT22;16733;48.738;9.106;2022-09-06T20:14:18;21.00;96.70
29855;DHT22;16733;48.738;9.106;2022-09-06T20:16:44;21.00;96.70
29855;DHT22;16733;48.738;9.106;2022-09-06T20:22:32;21.00;96.50
29855;DHT22;16733;48.738;9.106;2022-09-06T20:24:58;21.00;96.80
29855;DHT22;16733;48.738;9.106;2022-09-06T20:27:24;21.00;96.80
29855;DHT22;16733;48.738;9.106;2022-09-06T20:29:49;21.00;96.80
29855;DHT22;16733;48.738;9.106;2022-09-06T20:32:15;21.00;96.80
29855;DHT22;16733;48.738;9.106;2022-09-06T20:38:03;20.90;96.60
29855;DHT22;16733;48.738;9.106;2022-09-06T20:40:28;20.90;97.00
29855;DHT22;16733;48.738;9.106;2022-09-06T20:42:54;20.80;96.90
29855;DHT22;16733;48.738;9.106;2022-09-06T20:45:19;20.70;97.00
29855;DHT22;16733;48.738;9.106;2022-09-06T20:47:47;20.70;97.00
29855;DHT22;16733;48.738;9.106;2022-09-06T20:50:13;20.60;97.10
29855;DHT22;16733;48.738;9.106;2022-09-06T20:56:03;20.50;97.00
29855;DHT22;16733;48.738;9.106;2022-09-06T20:58:29;20.50;97.40
29855;DHT22;16733;48.738;9.106;2022-09-06T21:00:56;20.50;97.40
29855;DHT22;16733;48.738;9.106;2022-09-06T21:03:23;20.50;97.40
29855;DHT22;16733;48.738;9.106;2022-09-06T21:05:49;20.50;97.50
29855;DHT22;16733;48.738;9.106;2022-09-06T21:08:15;20.50;97.50
29855;DHT22;16733;48.738;9.106;2022-09-06T21:10:41;20.50;97.40
29855;DHT22;16733;48.738;9.106;2022-09-06T21:16:30;20.50;97.10
29855;DHT22;16733;48.738;9.106;2022-09-06T21:19:00;20.50;97.40